< < Back
Terminal Aerodrome Forecast


Current Version              Previous Versions:   1  2  3  4  5  6  7  8  9  

Terminal Aerodrome Forecast

247
FTUS44 KBMX 241135
TAFMGM
TAF
KMGM 241135Z 2412/2512 00000KT P6SM SCT250
     FM241600 13007KT P6SM SCT250
     FM250000 VRB02KT P6SM FEW250=

Latest METAR

455
SAUS80 KWBC 241800
MTRMGM
METAR KMGM 241753Z 18005KT 10SM CLR 34/22 A3003 RMK AO2 SLP163 T03390222
10339 20261 58007


USA.gov is the U.S. government's official web portal to all federal, state and local government web resources and services.